sensor_id;sensor_type;location;lat;lon;timestamp;temperature;humidity
78733;DHT22;68056;52.530;5.454;2023-05-10T00:00:15;13.50;75.80
78733;DHT22;68056;52.530;5.454;2023-05-10T00:02:41;13.60;75.70
78733;DHT22;68056;52.530;5.454;2023-05-10T00:05:12;13.60;75.80
78733;DHT22;68056;52.530;5.454;2023-05-10T00:07:37;13.60;75.80
78733;DHT22;68056;52.530;5.454;2023-05-10T00:10:03;13.60;75.70
78733;DHT22;68056;52.530;5.454;2023-05-10T00:12:29;13.60;75.80
78733;DHT22;68056;52.530;5.454;2023-05-10T00:14:54;13.60;75.70
78733;DHT22;68056;52.530;5.454;2023-05-10T00:17:20;13.60;75.70
78733;DHT22;68056;52.530;5.454;2023-05-10T00:19:45;13.60;75.70
78733;DHT22;68056;52.530;5.454;2023-05-10T00:22:20;13.60;75.70
78733;DHT22;68056;52.530;5.454;2023-05-10T00:24:46;13.60;75.70
78733;DHT22;68056;52.530;5.454;2023-05-10T00:27:12;13.60;75.70
78733;DHT22;68056;52.530;5.454;2023-05-10T00:29:37;13.60;75.70
78733;DHT22;68056;52.530;5.454;2023-05-10T00:32:21;13.60;75.70
78733;DHT22;68056;52.530;5.454;2023-05-10T00:34:49;13.60;75.70
78733;DHT22;68056;52.530;5.454;2023-05-10T00:37:14;13.60;75.70
78733;DHT22;68056;52.530;5.454;2023-05-10T00:39:40;13.60;75.70
78733;DHT22;68056;52.530;5.454;2023-05-10T00:42:06;13.60;75.60
78733;DHT22;68056;52.530;5.454;2023-05-10T00:44:34;13.60;75.60
78733;DHT22;68056;52.530;5.454;2023-05-10T00:47:00;13.60;75.60
78733;DHT22;68056;52.530;5.454;2023-05-10T00:49:26;13.50;75.70
78733;DHT22;68056;52.530;5.454;2023-05-10T00:51:55;13.50;75.60
78733;DHT22;68056;52.530;5.454;2023-05-10T00:54:20;13.50;75.60
78733;DHT22;68056;52.530;5.454;2023-05-10T00:56:46;13.50;75.60
78733;DHT22;68056;52.530;5.454;2023-05-10T00:59:15;13.50;75.50
78733;DHT22;68056;52.530;5.454;2023-05-10T01:01:42;13.50;75.50
78733;DHT22;68056;52.530;5.454;2023-05-10T01:04:09;13.50;75.50
78733;DHT22;68056;52.530;5.454;2023-05-10T01:06:36;13.50;75.50
78733;DHT22;68056;52.530;5.454;2023-05-10T01:09:01;13.50;75.50
78733;DHT22;68056;52.530;5.454;2023-05-10T01:11:27;13.50;75.50
78733;DHT22;68056;52.530;5.454;2023-05-10T01:13:56;13.50;75.50
78733;DHT22;68056;52.530;5.454;2023-05-10T01:16:23;13.50;75.50
78733;DHT22;68056;52.530;5.454;2023-05-10T01:18:51;13.50;75.60
78733;DHT22;68056;52.530;5.454;2023-05-10T01:21:38;13.50;75.50
78733;DHT22;68056;52.530;5.454;2023-05-10T01:27:31;13.50;75.50
78733;DHT22;68056;52.530;5.454;2023-05-10T01:33:46;13.50;75.50
78733;DHT22;68056;52.530;5.454;2023-05-10T01:36:32;13.50;75.50
78733;DHT22;68056;52.530;5.454;2023-05-10T01:38:52;13.50;75.50
78733;DHT22;68056;52.530;5.454;2023-05-10T01:46:38;13.50;75.50
78733;DHT22;68056;52.530;5.454;2023-05-10T01:49:24;13.50;75.50
78733;DHT22;68056;52.530;5.454;2023-05-10T01:51:53;13.50;75.60
78733;DHT22;68056;52.530;5.454;2023-05-10T01:54:21;13.50;75.50
78733;DHT22;68056;52.530;5.454;2023-05-10T01:56:52;13.50;75.50
78733;DHT22;68056;52.530;5.454;2023-05-10T01:59:28;13.50;75.50
78733;DHT22;68056;52.530;5.454;2023-05-10T02:01:57;13.50;75.50
78733;DHT22;68056;52.530;5.454;2023-05-10T02:04:25;13.50;75.60
78733;DHT22;68056;52.530;5.454;2023-05-10T02:06:51;13.50;75.60
78733;DHT22;68056;52.530;5.454;2023-05-10T02:09:19;13.50;75.60
78733;DHT22;68056;52.530;5.454;2023-05-10T02:11:47;13.50;75.60
78733;DHT22;68056;52.530;5.454;2023-05-10T02:14:14;13.50;75.60
78733;DHT22;68056;52.530;5.454;2023-05-10T02:16:41;13.50;75.60
78733;DHT22;68056;52.530;5.454;2023-05-10T02:19:09;13.50;75.50
78733;DHT22;68056;52.530;5.454;2023-05-10T02:21:35;13.50;75.60
78733;DHT22;68056;52.530;5.454;2023-05-10T02:24:03;13.50;75.60
78733;DHT22;68056;52.530;5.454;2023-05-10T02:26:30;13.40;75.50
78733;DHT22;68056;52.530;5.454;2023-05-10T02:28:58;13.40;75.60
78733;DHT22;68056;52.530;5.454;2023-05-10T02:31:24;13.30;75.60
78733;DHT22;68056;52.530;5.454;2023-05-10T02:33:50;13.40;75.60
78733;DHT22;68056;52.530;5.454;2023-05-10T02:36:16;13.40;75.60
78733;DHT22;68056;52.530;5.454;2023-05-10T02:38:43;13.50;75.50
78733;DHT22;68056;52.530;5.454;2023-05-10T02:41:10;13.40;75.50
78733;DHT22;68056;52.530;5.454;2023-05-10T02:43:38;13.40;75.50
78733;DHT22;68056;52.530;5.454;2023-05-10T02:46:04;13.40;75.60
78733;DHT22;68056;52.530;5.454;2023-05-10T02:48:30;13.40;75.60
78733;DHT22;68056;52.530;5.454;2023-05-10T02:51:02;13.40;75.60
78733;DHT22;68056;52.530;5.454;2023-05-10T02:53:35;13.40;75.50
78733;DHT22;68056;52.530;5.454;2023-05-10T02:56:05;13.40;75.50
78733;DHT22;68056;52.530;5.454;2023-05-10T02:58:32;13.40;75.50
78733;DHT22;68056;52.530;5.454;2023-05-10T03:00:59;13.40;75.50
78733;DHT22;68056;52.530;5.454;2023-05-10T03:03:25;13.40;75.50
78733;DHT22;68056;52.530;5.454;2023-05-10T03:05:50;13.40;75.50
78733;DHT22;68056;52.530;5.454;2023-05-10T03:08:16;13.50;75.50
78733;DHT22;68056;52.530;5.454;2023-05-10T03:10:50;13.50;75.50
78733;DHT22;68056;52.530;5.454;2023-05-10T03:16:28;13.40;75.50
78733;DHT22;68056;52.530;5.454;2023-05-10T03:21:31;13.40;75.50
78733;DHT22;68056;52.530;5.454;2023-05-10T03:24:07;13.40;75.50
78733;DHT22;68056;52.530;5.454;2023-05-10T03:26:37;13.40;75.50
78733;DHT22;68056;52.530;5.454;2023-05-10T03:29:04;13.30;75.50
78733;DHT22;68056;52.530;5.454;2023-05-10T03:31:30;13.30;75.50
78733;DHT22;68056;52.530;5.454;2023-05-10T03:33:56;13.30;75.50
78733;DHT22;68056;52.530;5.454;2023-05-10T03:36:21;13.30;75.50
78733;DHT22;68056;52.530;5.454;2023-05-10T03:38:47;13.30;75.50
78733;DHT22;68056;52.530;5.454;2023-05-10T03:41:12;13.30;75.50
78733;DHT22;68056;52.530;5.454;2023-05-10T03:43:39;13.30;75.50
78733;DHT22;68056;52.530;5.454;2023-05-10T03:46:05;13.30;75.50
78733;DHT22;68056;52.530;5.454;2023-05-10T03:48:32;13.30;75.50
78733;DHT22;68056;52.530;5.454;2023-05-10T03:50:58;13.30;75.50
78733;DHT22;68056;52.530;5.454;2023-05-10T03:53:24;13.30;75.50
78733;DHT22;68056;52.530;5.454;2023-05-10T03:55:50;13.30;75.40
78733;DHT22;68056;52.530;5.454;2023-05-10T03:58:16;13.30;75.40
78733;DHT22;68056;52.530;5.454;2023-05-10T04:00:42;13.20;75.40
78733;DHT22;68056;52.530;5.454;2023-05-10T04:03:10;13.20;75.40
78733;DHT22;68056;52.530;5.454;2023-05-10T04:05:36;13.20;75.40
78733;DHT22;68056;52.530;5.454;2023-05-10T04:08:02;13.20;75.40
78733;DHT22;68056;52.530;5.454;2023-05-10T04:10:28;13.20;75.40
78733;DHT22;68056;52.530;5.454;2023-05-10T04:12:55;13.20;75.30
78733;DHT22;68056;52.530;5.454;2023-05-10T04:15:20;13.20;75.30
78733;DHT22;68056;52.530;5.454;2023-05-10T04:17:46;13.20;75.30
78733;DHT22;68056;52.530;5.454;2023-05-10T04:20:12;13.20;75.20
78733;DHT22;68056;52.530;5.454;2023-05-10T04:22:38;13.10;75.30
78733;DHT22;68056;52.530;5.454;2023-05-10T04:25:04;13.10;75.20
78733;DHT22;68056;52.530;5.454;2023-05-10T04:27:31;13.10;75.20
78733;DHT22;68056;52.530;5.454;2023-05-10T04:29:57;13.10;75.30
78733;DHT22;68056;52.530;5.454;2023-05-10T04:32:23;13.10;75.20
78733;DHT22;68056;52.530;5.454;2023-05-10T04:34:48;13.10;75.20
78733;DHT22;68056;52.530;5.454;2023-05-10T04:37:14;13.10;75.20
78733;DHT22;68056;52.530;5.454;2023-05-10T04:39:40;13.10;75.30
78733;DHT22;68056;52.530;5.454;2023-05-10T04:42:05;13.10;75.30
78733;DHT22;68056;52.530;5.454;2023-05-10T04:44:32;13.10;75.30
78733;DHT22;68056;52.530;5.454;2023-05-10T04:46:57;13.10;75.30
78733;DHT22;68056;52.530;5.454;2023-05-10T04:49:23;13.10;75.30
78733;DHT22;68056;52.530;5.454;2023-05-10T04:51:48;13.10;75.30
78733;DHT22;68056;52.530;5.454;2023-05-10T04:54:14;13.10;75.30
78733;DHT22;68056;52.530;5.454;2023-05-10T04:56:40;13.10;75.40
78733;DHT22;68056;52.530;5.454;2023-05-10T04:59:06;13.10;75.40
78733;DHT22;68056;52.530;5.454;2023-05-10T05:01:32;13.10;75.40
78733;DHT22;68056;52.530;5.454;2023-05-10T05:03:58;13.10;75.40
78733;DHT22;68056;52.530;5.454;2023-05-10T05:06:23;13.10;75.40
78733;DHT22;68056;52.530;5.454;2023-05-10T05:08:50;13.10;75.50
78733;DHT22;68056;52.530;5.454;2023-05-10T05:11:17;13.10;75.50
78733;DHT22;68056;52.530;5.454;2023-05-10T05:13:44;13.10;75.50
78733;DHT22;68056;52.530;5.454;2023-05-10T05:16:10;13.10;75.50
78733;DHT22;68056;52.530;5.454;2023-05-10T05:18:38;13.10;75.50
78733;DHT22;68056;52.530;5.454;2023-05-10T05:21:12;13.10;75.50
78733;DHT22;68056;52.530;5.454;2023-05-10T05:23:39;13.10;75.50
78733;DHT22;68056;52.530;5.454;2023-05-10T05:26:05;13.10;75.50
78733;DHT22;68056;52.530;5.454;2023-05-10T05:28:32;13.10;75.50
78733;DHT22;68056;52.530;5.454;2023-05-10T05:31:01;13.10;75.50
78733;DHT22;68056;52.530;5.454;2023-05-10T05:33:27;13.10;75.50
78733;DHT22;68056;52.530;5.454;2023-05-10T05:35:52;13.10;75.50
78733;DHT22;68056;52.530;5.454;2023-05-10T05:38:18;13.10;75.50
78733;DHT22;68056;52.530;5.454;2023-05-10T05:40:44;13.10;75.50
78733;DHT22;68056;52.530;5.454;2023-05-10T05:43:10;13.10;75.40
78733;DHT22;68056;52.530;5.454;2023-05-10T05:45:36;13.10;75.40
78733;DHT22;68056;52.530;5.454;2023-05-10T05:48:02;13.20;75.40
78733;DHT22;68056;52.530;5.454;2023-05-10T05:50:27;13.30;75.40
78733;DHT22;68056;52.530;5.454;2023-05-10T05:52:53;13.30;75.30
78733;DHT22;68056;52.530;5.454;2023-05-10T05:55:19;13.30;75.30
78733;DHT22;68056;52.530;5.454;2023-05-10T05:57:44;13.30;75.30
78733;DHT22;68056;52.530;5.454;2023-05-10T06:00:10;13.30;75.40
78733;DHT22;68056;52.530;5.454;2023-05-10T06:02:36;13.30;75.30
78733;DHT22;68056;52.530;5.454;2023-05-10T06:05:01;13.30;75.30
78733;DHT22;68056;52.530;5.454;2023-05-10T06:07:27;13.30;75.30
78733;DHT22;68056;52.530;5.454;2023-05-10T06:09:53;13.20;75.30
78733;DHT22;68056;52.530;5.454;2023-05-10T06:12:18;13.20;75.40
78733;DHT22;68056;52.530;5.454;2023-05-10T06:14:44;13.30;75.40
78733;DHT22;68056;52.530;5.454;2023-05-10T06:17:10;13.30;75.30
78733;DHT22;68056;52.530;5.454;2023-05-10T06:19:35;13.30;75.40
78733;DHT22;68056;52.530;5.454;2023-05-10T06:22:02;13.30;75.30
78733;DHT22;68056;52.530;5.454;2023-05-10T06:24:27;13.40;75.20
78733;DHT22;68056;52.530;5.454;2023-05-10T06:26:53;13.40;75.10
78733;DHT22;68056;52.530;5.454;2023-05-10T06:29:18;13.40;75.10
78733;DHT22;68056;52.530;5.454;2023-05-10T06:31:44;13.50;75.10
78733;DHT22;68056;52.530;5.454;2023-05-10T06:34:09;13.50;75.10
78733;DHT22;68056;52.530;5.454;2023-05-10T06:36:36;13.60;75.00
78733;DHT22;68056;52.530;5.454;2023-05-10T06:39:09;13.60;74.90
78733;DHT22;68056;52.530;5.454;2023-05-10T06:41:37;13.60;75.00
78733;DHT22;68056;52.530;5.454;2023-05-10T06:44:03;13.60;74.90
78733;DHT22;68056;52.530;5.454;2023-05-10T06:46:29;13.50;75.00
78733;DHT22;68056;52.530;5.454;2023-05-10T06:48:55;13.50;75.00
78733;DHT22;68056;52.530;5.454;2023-05-10T06:51:21;13.50;75.00
78733;DHT22;68056;52.530;5.454;2023-05-10T06:53:46;13.50;75.00
78733;DHT22;68056;52.530;5.454;2023-05-10T06:56:12;13.50;75.00
78733;DHT22;68056;52.530;5.454;2023-05-10T06:58:38;13.50;75.10
78733;DHT22;68056;52.530;5.454;2023-05-10T07:01:05;13.50;75.10
78733;DHT22;68056;52.530;5.454;2023-05-10T07:03:31;13.40;75.10
78733;DHT22;68056;52.530;5.454;2023-05-10T07:06:04;13.40;75.10
78733;DHT22;68056;52.530;5.454;2023-05-10T07:08:35;13.40;75.10
78733;DHT22;68056;52.530;5.454;2023-05-10T07:11:04;13.40;75.10
78733;DHT22;68056;52.530;5.454;2023-05-10T07:13:31;13.40;75.20
78733;DHT22;68056;52.530;5.454;2023-05-10T07:15:57;13.50;75.10
78733;DHT22;68056;52.530;5.454;2023-05-10T07:18:23;13.50;75.00
78733;DHT22;68056;52.530;5.454;2023-05-10T07:20:49;13.50;75.10
78733;DHT22;68056;52.530;5.454;2023-05-10T07:23:15;13.50;75.00
78733;DHT22;68056;52.530;5.454;2023-05-10T07:25:40;13.50;75.00
78733;DHT22;68056;52.530;5.454;2023-05-10T07:28:07;13.60;74.90
78733;DHT22;68056;52.530;5.454;2023-05-10T07:30:34;13.70;74.80
78733;DHT22;68056;52.530;5.454;2023-05-10T07:33:01;13.70;74.60
78733;DHT22;68056;52.530;5.454;2023-05-10T07:35:26;13.70;74.60
78733;DHT22;68056;52.530;5.454;2023-05-10T07:37:52;13.70;74.70
78733;DHT22;68056;52.530;5.454;2023-05-10T07:40:18;13.90;74.60
78733;DHT22;68056;52.530;5.454;2023-05-10T07:42:43;13.90;74.50
78733;DHT22;68056;52.530;5.454;2023-05-10T07:45:09;13.90;74.50
78733;DHT22;68056;52.530;5.454;2023-05-10T07:47:35;13.90;74.40
78733;DHT22;68056;52.530;5.454;2023-05-10T07:50:00;14.00;74.40
78733;DHT22;68056;52.530;5.454;2023-05-10T07:52:26;14.10;74.30
78733;DHT22;68056;52.530;5.454;2023-05-10T07:54:52;14.10;74.20
78733;DHT22;68056;52.530;5.454;2023-05-10T07:57:18;14.20;74.10
78733;DHT22;68056;52.530;5.454;2023-05-10T07:59:44;14.20;74.10
78733;DHT22;68056;52.530;5.454;2023-05-10T08:02:10;14.30;74.00
78733;DHT22;68056;52.530;5.454;2023-05-10T08:04:36;14.30;74.00
78733;DHT22;68056;52.530;5.454;2023-05-10T08:07:01;14.40;73.90
78733;DHT22;68056;52.530;5.454;2023-05-10T08:09:27;14.40;73.80
78733;DHT22;68056;52.530;5.454;2023-05-10T08:11:52;14.50;73.70
78733;DHT22;68056;52.530;5.454;2023-05-10T08:14:18;14.50;73.60
78733;DHT22;68056;52.530;5.454;2023-05-10T08:16:44;14.50;73.60
78733;DHT22;68056;52.530;5.454;2023-05-10T08:19:09;14.60;73.60
78733;DHT22;68056;52.530;5.454;2023-05-10T08:21:35;14.60;73.50
78733;DHT22;68056;52.530;5.454;2023-05-10T08:24:01;14.70;73.50
78733;DHT22;68056;52.530;5.454;2023-05-10T08:26:27;14.70;73.30
78733;DHT22;68056;52.530;5.454;2023-05-10T08:28:53;14.80;73.20
78733;DHT22;68056;52.530;5.454;2023-05-10T08:31:18;14.80;73.20
78733;DHT22;68056;52.530;5.454;2023-05-10T08:33:44;14.80;73.10
78733;DHT22;68056;52.530;5.454;2023-05-10T08:36:10;14.80;73.10
78733;DHT22;68056;52.530;5.454;2023-05-10T08:38:35;14.90;73.00
78733;DHT22;68056;52.530;5.454;2023-05-10T08:41:03;15.00;72.90
78733;DHT22;68056;52.530;5.454;2023-05-10T08:43:29;15.10;72.80
78733;DHT22;68056;52.530;5.454;2023-05-10T08:45:56;15.30;72.60
78733;DHT22;68056;52.530;5.454;2023-05-10T08:48:24;15.40;72.40
78733;DHT22;68056;52.530;5.454;2023-05-10T08:50:53;15.50;72.20
78733;DHT22;68056;52.530;5.454;2023-05-10T08:53:26;15.60;72.10
78733;DHT22;68056;52.530;5.454;2023-05-10T08:55:53;15.80;71.70
78733;DHT22;68056;52.530;5.454;2023-05-10T08:58:19;16.00;71.50
78733;DHT22;68056;52.530;5.454;2023-05-10T09:00:49;16.00;71.40
78733;DHT22;68056;52.530;5.454;2023-05-10T09:03:16;16.20;71.20
78733;DHT22;68056;52.530;5.454;2023-05-10T09:05:42;16.30;71.00
78733;DHT22;68056;52.530;5.454;2023-05-10T09:08:10;16.40;71.00
78733;DHT22;68056;52.530;5.454;2023-05-10T09:10:38;16.40;70.80
78733;DHT22;68056;52.530;5.454;2023-05-10T09:13:05;16.50;70.60
78733;DHT22;68056;52.530;5.454;2023-05-10T09:15:30;16.60;70.40
78733;DHT22;68056;52.530;5.454;2023-05-10T09:17:56;16.80;70.40
78733;DHT22;68056;52.530;5.454;2023-05-10T09:20:23;17.00;70.00
78733;DHT22;68056;52.530;5.454;2023-05-10T09:22:52;17.00;69.30
78733;DHT22;68056;52.530;5.454;2023-05-10T09:25:17;17.00;69.50
78733;DHT22;68056;52.530;5.454;2023-05-10T09:27:47;17.20;69.20
78733;DHT22;68056;52.530;5.454;2023-05-10T09:30:31;17.30;68.90
78733;DHT22;68056;52.530;5.454;2023-05-10T09:32:58;17.50;69.00
78733;DHT22;68056;52.530;5.454;2023-05-10T09:35:26;17.50;68.50
78733;DHT22;68056;52.530;5.454;2023-05-10T09:37:53;17.40;68.50
78733;DHT22;68056;52.530;5.454;2023-05-10T09:40:21;17.40;68.70
78733;DHT22;68056;52.530;5.454;2023-05-10T09:45:29;17.50;68.70
78733;DHT22;68056;52.530;5.454;2023-05-10T09:47:55;17.60;68.80
78733;DHT22;68056;52.530;5.454;2023-05-10T09:50:22;17.60;68.40
78733;DHT22;68056;52.530;5.454;2023-05-10T09:52:55;17.60;68.30
78733;DHT22;68056;52.530;5.454;2023-05-10T09:55:40;17.60;68.40
78733;DHT22;68056;52.530;5.454;2023-05-10T09:58:06;17.50;68.10
78733;DHT22;68056;52.530;5.454;2023-05-10T10:00:37;17.50;68.10
78733;DHT22;68056;52.530;5.454;2023-05-10T10:03:03;17.50;68.30
78733;DHT22;68056;52.530;5.454;2023-05-10T10:05:35;17.60;68.20
78733;DHT22;68056;52.530;5.454;2023-05-10T10:08:04;17.60;67.80
78733;DHT22;68056;52.530;5.454;2023-05-10T10:10:32;17.70;67.70
78733;DHT22;68056;52.530;5.454;2023-05-10T10:12:58;17.70;67.50
78733;DHT22;68056;52.530;5.454;2023-05-10T10:15:25;17.70;67.70
78733;DHT22;68056;52.530;5.454;2023-05-10T10:17:51;17.80;67.50
78733;DHT22;68056;52.530;5.454;2023-05-10T10:20:18;17.80;67.50
78733;DHT22;68056;52.530;5.454;2023-05-10T10:22:44;17.80;67.20
78733;DHT22;68056;52.530;5.454;2023-05-10T10:25:12;17.80;67.20
78733;DHT22;68056;52.530;5.454;2023-05-10T10:35:45;18.00;67.30
78733;DHT22;68056;52.530;5.454;2023-05-10T10:38:13;18.00;67.30
78733;DHT22;68056;52.530;5.454;2023-05-10T10:40:38;18.10;67.30
78733;DHT22;68056;52.530;5.454;2023-05-10T10:43:23;18.30;67.20
78733;DHT22;68056;52.530;5.454;2023-05-10T10:46:15;18.40;66.70
78733;DHT22;68056;52.530;5.454;2023-05-10T10:48:46;18.40;66.60
78733;DHT22;68056;52.530;5.454;2023-05-10T10:51:13;18.40;66.70
78733;DHT22;68056;52.530;5.454;2023-05-10T10:53:40;18.40;66.50
78733;DHT22;68056;52.530;5.454;2023-05-10T10:58:33;18.30;66.10
78733;DHT22;68056;52.530;5.454;2023-05-10T11:01:13;18.30;66.30
78733;DHT22;68056;52.530;5.454;2023-05-10T11:03:40;18.40;66.40
78733;DHT22;68056;52.530;5.454;2023-05-10T11:06:06;18.50;66.20
78733;DHT22;68056;52.530;5.454;2023-05-10T11:08:39;18.50;66.00
78733;DHT22;68056;52.530;5.454;2023-05-10T11:11:07;18.40;66.00
78733;DHT22;68056;52.530;5.454;2023-05-10T11:13:38;18.20;66.10
78733;DHT22;68056;52.530;5.454;2023-05-10T11:16:24;18.00;66.20
78733;DHT22;68056;52.530;5.454;2023-05-10T11:19:09;17.90;66.30
78733;DHT22;68056;52.530;5.454;2023-05-10T11:22:27;17.80;66.40
78733;DHT22;68056;52.530;5.454;2023-05-10T11:24:33;17.80;66.60
78733;DHT22;68056;52.530;5.454;2023-05-10T11:26:59;17.80;66.70
78733;DHT22;68056;52.530;5.454;2023-05-10T11:29:25;17.70;66.80
78733;DHT22;68056;52.530;5.454;2023-05-10T11:31:51;17.80;66.80
78733;DHT22;68056;52.530;5.454;2023-05-10T11:34:25;17.80;66.60
78733;DHT22;68056;52.530;5.454;2023-05-10T11:36:53;17.90;66.60
78733;DHT22;68056;52.530;5.454;2023-05-10T11:39:25;18.00;66.50
78733;DHT22;68056;52.530;5.454;2023-05-10T11:41:51;18.00;66.40
78733;DHT22;68056;52.530;5.454;2023-05-10T11:44:16;18.00;66.40
78733;DHT22;68056;52.530;5.454;2023-05-10T11:46:42;18.00;66.60
78733;DHT22;68056;52.530;5.454;2023-05-10T11:49:08;18.10;66.60
78733;DHT22;68056;52.530;5.454;2023-05-10T11:51:34;18.10;66.50
78733;DHT22;68056;52.530;5.454;2023-05-10T11:54:09;18.10;66.50
78733;DHT22;68056;52.530;5.454;2023-05-10T11:56:35;18.10;66.50
78733;DHT22;68056;52.530;5.454;2023-05-10T11:59:01;18.10;66.20
78733;DHT22;68056;52.530;5.454;2023-05-10T12:01:28;18.10;66.20
78733;DHT22;68056;52.530;5.454;2023-05-10T12:03:57;18.00;66.30
78733;DHT22;68056;52.530;5.454;2023-05-10T12:06:29;18.00;66.40
78733;DHT22;68056;52.530;5.454;2023-05-10T12:08:56;18.00;66.50
78733;DHT22;68056;52.530;5.454;2023-05-10T12:11:25;18.00;66.40
78733;DHT22;68056;52.530;5.454;2023-05-10T12:13:53;18.00;66.20
78733;DHT22;68056;52.530;5.454;2023-05-10T12:16:25;18.00;66.40
78733;DHT22;68056;52.530;5.454;2023-05-10T12:18:52;18.00;66.40
78733;DHT22;68056;52.530;5.454;2023-05-10T12:21:18;18.10;66.30
78733;DHT22;68056;52.530;5.454;2023-05-10T12:23:46;18.20;66.40
78733;DHT22;68056;52.530;5.454;2023-05-10T12:26:12;18.30;66.10
78733;DHT22;68056;52.530;5.454;2023-05-10T12:28:38;18.40;65.80
78733;DHT22;68056;52.530;5.454;2023-05-10T12:31:08;18.50;65.50
78733;DHT22;68056;52.530;5.454;2023-05-10T12:33:43;18.50;65.40
78733;DHT22;68056;52.530;5.454;2023-05-10T12:36:13;18.60;65.40
78733;DHT22;68056;52.530;5.454;2023-05-10T12:38:44;18.60;65.50
78733;DHT22;68056;52.530;5.454;2023-05-10T12:41:17;18.70;65.50
78733;DHT22;68056;52.530;5.454;2023-05-10T12:43:43;18.80;65.40
78733;DHT22;68056;52.530;5.454;2023-05-10T12:46:10;18.80;65.40
78733;DHT22;68056;52.530;5.454;2023-05-10T12:48:37;18.80;65.50
78733;DHT22;68056;52.530;5.454;2023-05-10T12:51:03;19.00;65.40
78733;DHT22;68056;52.530;5.454;2023-05-10T12:53:29;19.20;65.10
78733;DHT22;68056;52.530;5.454;2023-05-10T12:55:55;19.30;65.00
78733;DHT22;68056;52.530;5.454;2023-05-10T12:58:21;19.40;64.70
78733;DHT22;68056;52.530;5.454;2023-05-10T13:00:46;19.50;64.70
78733;DHT22;68056;52.530;5.454;2023-05-10T13:03:12;19.50;64.70
78733;DHT22;68056;52.530;5.454;2023-05-10T13:05:38;19.50;64.50
78733;DHT22;68056;52.530;5.454;2023-05-10T13:08:04;19.50;64.50
78733;DHT22;68056;52.530;5.454;2023-05-10T13:10:33;19.50;64.50
78733;DHT22;68056;52.530;5.454;2023-05-10T13:13:00;19.60;64.50
78733;DHT22;68056;52.530;5.454;2023-05-10T13:15:26;19.70;64.40
78733;DHT22;68056;52.530;5.454;2023-05-10T13:17:53;20.00;64.00
78733;DHT22;68056;52.530;5.454;2023-05-10T13:20:19;20.10;63.70
78733;DHT22;68056;52.530;5.454;2023-05-10T13:22:45;20.30;63.70
78733;DHT22;68056;52.530;5.454;2023-05-10T13:25:11;20.60;63.50
78733;DHT22;68056;52.530;5.454;2023-05-10T13:27:38;20.80;63.00
78733;DHT22;68056;52.530;5.454;2023-05-10T13:30:05;20.70;63.00
78733;DHT22;68056;52.530;5.454;2023-05-10T13:32:31;20.60;63.10
78733;DHT22;68056;52.530;5.454;2023-05-10T13:34:56;20.40;63.10
78733;DHT22;68056;52.530;5.454;2023-05-10T13:37:22;20.20;63.20
78733;DHT22;68056;52.530;5.454;2023-05-10T13:39:48;20.10;63.40
78733;DHT22;68056;52.530;5.454;2023-05-10T13:42:14;19.90;63.50
78733;DHT22;68056;52.530;5.454;2023-05-10T13:44:39;19.70;63.90
78733;DHT22;68056;52.530;5.454;2023-05-10T13:47:05;19.70;63.90
78733;DHT22;68056;52.530;5.454;2023-05-10T13:49:31;19.60;64.00
78733;DHT22;68056;52.530;5.454;2023-05-10T13:51:56;19.60;64.30
78733;DHT22;68056;52.530;5.454;2023-05-10T13:54:24;19.70;64.10
78733;DHT22;68056;52.530;5.454;2023-05-10T13:56:49;19.70;64.00
78733;DHT22;68056;52.530;5.454;2023-05-10T13:59:15;19.70;64.00
78733;DHT22;68056;52.530;5.454;2023-05-10T14:01:41;20.00;63.70
78733;DHT22;68056;52.530;5.454;2023-05-10T14:04:08;20.20;63.50
78733;DHT22;68056;52.530;5.454;2023-05-10T14:06:36;20.30;63.30
78733;DHT22;68056;52.530;5.454;2023-05-10T14:09:05;20.20;63.00
78733;DHT22;68056;52.530;5.454;2023-05-10T14:11:30;20.00;63.00
78733;DHT22;68056;52.530;5.454;2023-05-10T14:13:56;20.00;63.10
78733;DHT22;68056;52.530;5.454;2023-05-10T14:16:22;19.80;63.20
78733;DHT22;68056;52.530;5.454;2023-05-10T14:18:48;19.70;63.30
78733;DHT22;68056;52.530;5.454;2023-05-10T14:21:15;19.70;63.20
78733;DHT22;68056;52.530;5.454;2023-05-10T14:23:40;19.50;63.30
78733;DHT22;68056;52.530;5.454;2023-05-10T14:26:06;19.50;63.50
78733;DHT22;68056;52.530;5.454;2023-05-10T14:28:32;19.50;63.70
78733;DHT22;68056;52.530;5.454;2023-05-10T14:30:58;19.50;63.70
78733;DHT22;68056;52.530;5.454;2023-05-10T14:33:24;19.40;63.90
78733;DHT22;68056;52.530;5.454;2023-05-10T14:35:50;19.30;64.00
78733;DHT22;68056;52.530;5.454;2023-05-10T14:38:16;19.30;64.00
78733;DHT22;68056;52.530;5.454;2023-05-10T14:40:42;19.20;64.00
78733;DHT22;68056;52.530;5.454;2023-05-10T14:43:08;19.10;64.00
78733;DHT22;68056;52.530;5.454;2023-05-10T14:45:33;19.10;64.00
78733;DHT22;68056;52.530;5.454;2023-05-10T14:48:00;19.00;64.10
78733;DHT22;68056;52.530;5.454;2023-05-10T14:50:25;19.00;64.20
78733;DHT22;68056;52.530;5.454;2023-05-10T14:52:51;18.90;64.20
78733;DHT22;68056;52.530;5.454;2023-05-10T14:55:16;18.90;64.20
78733;DHT22;68056;52.530;5.454;2023-05-10T14:57:42;18.80;64.30
78733;DHT22;68056;52.530;5.454;2023-05-10T15:00:09;18.80;64.30
78733;DHT22;68056;52.530;5.454;2023-05-10T15:02:35;18.80;64.30
78733;DHT22;68056;52.530;5.454;2023-05-10T15:05:01;18.80;64.40
78733;DHT22;68056;52.530;5.454;2023-05-10T15:07:26;18.70;64.30
78733;DHT22;68056;52.530;5.454;2023-05-10T15:09:52;18.70;64.20
78733;DHT22;68056;52.530;5.454;2023-05-10T15:12:18;18.70;64.10
78733;DHT22;68056;52.530;5.454;2023-05-10T15:14:44;18.70;64.10
78733;DHT22;68056;52.530;5.454;2023-05-10T15:17:10;18.70;64.10
78733;DHT22;68056;52.530;5.454;2023-05-10T15:19:36;18.70;64.00
78733;DHT22;68056;52.530;5.454;2023-05-10T15:22:03;18.60;64.00
78733;DHT22;68056;52.530;5.454;2023-05-10T15:24:29;18.60;64.00
78733;DHT22;68056;52.530;5.454;2023-05-10T15:26:55;18.40;64.20
78733;DHT22;68056;52.530;5.454;2023-05-10T15:29:24;18.40;64.40
78733;DHT22;68056;52.530;5.454;2023-05-10T15:31:50;18.30;64.50
78733;DHT22;68056;52.530;5.454;2023-05-10T15:34:16;18.20;64.50
78733;DHT22;68056;52.530;5.454;2023-05-10T15:36:43;18.10;64.70
78733;DHT22;68056;52.530;5.454;2023-05-10T15:39:10;18.10;64.80
78733;DHT22;68056;52.530;5.454;2023-05-10T15:41:37;18.00;64.80
78733;DHT22;68056;52.530;5.454;2023-05-10T15:44:03;18.00;64.90
78733;DHT22;68056;52.530;5.454;2023-05-10T15:46:29;17.90;65.00
78733;DHT22;68056;52.530;5.454;2023-05-10T15:48:54;18.00;65.00
78733;DHT22;68056;52.530;5.454;2023-05-10T15:51:20;17.90;65.00
78733;DHT22;68056;52.530;5.454;2023-05-10T15:53:47;17.80;65.00
78733;DHT22;68056;52.530;5.454;2023-05-10T15:56:13;17.80;65.10
78733;DHT22;68056;52.530;5.454;2023-05-10T15:58:39;17.80;65.20
78733;DHT22;68056;52.530;5.454;2023-05-10T16:01:05;17.80;65.20